Time;durP1;ratioP1;P1;durP2;ratioP2;P2;SDS_P1;SDS_P2;PMS_P1;PMS_P2;Temp;Humidity;BMP_temperature;BMP_pressure;BME280_temperature;BME280_humidity;BME280_pressure;Samples;Min_cycle;Max_cycle;Signal;HPM_P1;HPM_P2
2022/04/14 00:02:54;;;;;;;11.02;4.57;;;12.30;99.90;;;;;;20803728;28;20034;-49
2022/04/14 00:12:55;;;;;;;9.25;4.90;;;12.30;99.90;;;;;;20803309;28;20296;-49
2022/04/14 00:22:56;;;;;;;7.72;4.03;;;12.30;99.90;;;;;;20799209;28;20040;-50
2022/04/14 00:32:57;;;;;;;9.10;4.53;;;12.40;99.90;;;;;;20800068;28;20400;-50
2022/04/14 00:42:58;;;;;;;10.40;4.75;;;12.30;99.90;;;;;;20755303;28;20044;-49
2022/04/14 00:53:00;;;;;;;10.57;4.07;;;12.30;99.90;;;;;;20744174;28;20056;-49
2022/04/14 01:03:03;;;;;;;6.85;3.53;;;12.20;99.90;;;;;;20761792;28;20041;-49
2022/04/14 01:13:04;;;;;;;10.25;4.55;;;12.10;99.90;;;;;;20768173;28;20051;-50
2022/04/14 01:23:08;;;;;;;10.80;4.25;;;12.00;99.90;;;;;;20771596;28;20042;-50
2022/04/14 01:33:09;;;;;;;9.82;4.97;;;11.90;99.90;;;;;;20778337;28;20493;-49
2022/04/14 01:43:11;;;;;;;10.32;4.57;;;11.80;99.90;;;;;;20774414;28;20034;-49
2022/04/14 01:53:13;;;;;;;14.13;4.85;;;11.60;99.90;;;;;;20783581;28;20160;-49
2022/04/14 02:03:14;;;;;;;7.43;3.63;;;11.30;99.90;;;;;;20791781;28;21012;-50
2022/04/14 02:13:15;;;;;;;7.07;3.88;;;11.00;99.90;;;;;;20804991;28;20049;-49
2022/04/14 02:23:16;;;;;;;9.45;3.45;;;10.70;99.90;;;;;;20785663;28;20058;-49
2022/04/14 02:33:17;;;;;;;8.48;4.45;;;10.60;99.90;;;;;;20799658;28;20079;-49
2022/04/14 02:43:18;;;;;;;9.23;4.25;;;10.40;99.90;;;;;;20797918;28;20041;-49
2022/04/14 02:53:19;;;;;;;8.90;4.07;;;10.30;99.90;;;;;;20808938;28;20041;-49
2022/04/14 03:03:23;;;;;;;13.05;5.07;;;10.20;99.90;;;;;;20759128;28;20093;-49
2022/04/14 03:13:24;;;;;;;9.18;4.22;;;10.10;99.90;;;;;;20776855;28;20031;-49
2022/04/14 03:23:26;;;;;;;11.75;4.53;;;10.00;99.90;;;;;;20764686;28;20277;-49
2022/04/14 03:33:27;;;;;;;10.98;4.78;;;10.00;99.90;;;;;;20785339;28;20116;-49
2022/04/14 03:43:28;;;;;;;13.02;5.78;;;9.80;99.90;;;;;;20769557;28;20049;-49
2022/04/14 03:53:29;;;;;;;9.85;4.68;;;9.80;99.90;;;;;;20775236;28;20056;-49
2022/04/14 04:03:30;;;;;;;8.10;4.05;;;9.70;99.90;;;;;;20764123;28;20044;-49
2022/04/14 04:13:31;;;;;;;15.20;5.57;;;9.60;99.90;;;;;;20783682;28;20042;-49
2022/04/14 04:23:32;;;;;;;11.32;5.03;;;9.40;99.90;;;;;;20770820;28;20506;-49
2022/04/14 04:33:33;;;;;;;11.38;5.78;;;9.30;99.90;;;;;;20759218;28;20052;-49
2022/04/14 04:43:34;;;;;;;8.45;4.68;;;9.20;99.90;;;;;;20797831;28;20792;-49
2022/04/14 04:53:35;;;;;;;11.95;5.28;;;9.20;99.90;;;;;;20793391;28;20056;-49
2022/04/14 05:03:36;;;;;;;11.63;5.55;;;9.20;99.90;;;;;;20798658;28;20047;-49
2022/04/14 05:13:38;;;;;;;12.10;5.25;;;9.20;99.90;;;;;;20800658;28;20045;-49
2022/04/14 05:23:40;;;;;;;10.05;4.13;;;9.10;99.90;;;;;;20792960;28;20072;-49
2022/04/14 05:33:41;;;;;;;8.23;4.32;;;9.10;99.90;;;;;;20797450;28;20053;-49
2022/04/14 05:43:42;;;;;;;11.80;5.03;;;9.20;99.90;;;;;;20800118;28;20033;-49
2022/04/14 05:53:44;;;;;;;15.43;7.68;;;9.40;99.90;;;;;;20802830;28;20042;-49
2022/04/14 06:03:45;;;;;;;10.40;4.82;;;9.70;99.90;;;;;;20810008;28;20041;-49
2022/04/14 06:13:46;;;;;;;10.35;4.88;;;10.00;99.90;;;;;;20833731;28;20102;-49
2022/04/14 06:23:49;;;;;;;10.60;5.32;;;10.40;99.90;;;;;;20790448;28;20041;-49
2022/04/14 06:33:50;;;;;;;9.70;3.85;;;10.60;99.90;;;;;;20765383;28;20049;-49
2022/04/14 06:43:52;;;;;;;9.40;3.03;;;11.00;99.90;;;;;;20715125;28;20037;-48
2022/04/14 06:53:53;;;;;;;9.82;4.53;;;11.40;99.90;;;;;;20717163;28;20405;-49
2022/04/14 07:03:55;;;;;;;11.05;3.60;;;11.90;99.90;;;;;;20696888;28;20894;-49
2022/04/14 07:13:58;;;;;;;10.15;5.38;;;12.20;99.90;;;;;;20715324;28;20038;-49
2022/04/14 07:23:59;;;;;;;5.55;2.72;;;12.30;99.90;;;;;;20716267;28;20045;-49
2022/04/14 07:34:01;;;;;;;7.22;3.50;;;12.30;99.90;;;;;;20726656;28;20050;-49
2022/04/14 07:44:04;;;;;;;7.15;3.10;;;12.90;99.90;;;;;;20787777;28;20370;-49
2022/04/14 07:54:05;;;;;;;6.25;3.97;;;13.10;99.90;;;;;;20780229;28;20042;-49
2022/04/14 08:04:06;;;;;;;10.45;3.42;;;13.10;99.90;;;;;;20780994;28;20049;-50
2022/04/14 08:14:08;;;;;;;7.47;3.28;;;13.40;99.90;;;;;;20746575;28;20361;-50
2022/04/14 08:24:09;;;;;;;9.95;2.97;;;13.70;99.90;;;;;;20782277;28;20402;-49
2022/04/14 08:34:11;;;;;;;10.00;4.05;;;13.80;99.90;;;;;;20778209;28;20049;-50
2022/04/14 08:44:14;;;;;;;4.55;2.28;;;14.10;99.90;;;;;;20770894;28;20041;-49
2022/04/14 09:04:53;;;;;;;5.30;2.87;;;15.10;99.90;;;;;;20667197;23;20077;-81
2022/04/14 09:14:54;;;;;;;5.25;2.35;;;15.60;99.90;;;;;;20786462;28;20109;-81
2022/04/14 09:24:57;;;;;;;5.88;3.28;;;15.80;99.90;;;;;;20800159;28;20041;-79
2022/04/14 09:35:01;;;;;;;5.57;2.58;;;16.00;99.90;;;;;;20799492;28;20045;-78
2022/04/14 09:45:23;;;;;;;8.18;2.30;;;16.50;99.90;;;;;;20792072;28;20033;-79
2022/04/14 09:55:24;;;;;;;2.80;1.33;;;16.90;99.90;;;;;;20810344;28;20093;-84
2022/04/14 10:05:35;;;;;;;5.53;2.45;;;17.40;99.90;;;;;;20852773;28;20061;-79
2022/04/14 10:15:44;;;;;;;4.22;1.55;;;17.60;99.90;;;;;;20788016;28;20157;-80
2022/04/14 10:25:46;;;;;;;3.80;1.48;;;18.20;99.90;;;;;;20795065;28;20034;-80
2022/04/14 10:35:47;;;;;;;4.00;1.40;;;18.70;99.90;;;;;;20813541;28;20046;-80
2022/04/14 10:45:56;;;;;;;4.45;1.80;;;18.10;99.90;;;;;;20801770;28;20033;-80
2022/04/14 10:55:58;;;;;;;2.28;1.05;;;18.10;99.90;;;;;;20794802;28;20096;-80
2022/04/14 11:05:59;;;;;;;1.58;0.90;;;18.00;99.90;;;;;;20804471;28;20398;-80
2022/04/14 11:16:39;;;;;;;5.65;1.30;;;18.50;99.90;;;;;;20790540;28;20416;-80
2022/04/14 11:26:40;;;;;;;3.00;1.30;;;19.40;99.90;;;;;;20787536;28;20034;-78
2022/04/14 11:36:45;;;;;;;3.30;0.98;;;19.90;99.90;;;;;;20785905;28;20136;-79
2022/04/14 11:46:50;;;;;;;5.05;1.45;;;19.90;99.90;;;;;;20814450;28;20061;-79
2022/04/14 11:56:56;;;;;;;2.00;1.00;;;20.10;99.90;;;;;;20817631;28;20129;-79
2022/04/14 12:06:58;;;;;;;2.60;1.20;;;20.50;99.90;;;;;;20791079;28;21298;-79
2022/04/14 12:16:59;;;;;;;3.17;1.20;;;20.70;99.90;;;;;;20805340;28;20535;-79
2022/04/14 12:27:00;;;;;;;2.63;1.20;;;20.50;99.90;;;;;;20807003;28;20101;-78
2022/04/14 12:37:09;;;;;;;2.40;0.90;;;20.80;99.90;;;;;;20821351;28;20048;-79
2022/04/14 12:47:14;;;;;;;2.55;1.60;;;21.20;99.90;;;;;;20774631;28;20045;-80
2022/04/14 12:57:21;;;;;;;3.72;1.20;;;22.00;99.90;;;;;;20778048;28;20052;-80
2022/04/14 13:07:22;;;;;;;1.30;0.50;;;21.90;99.90;;;;;;20787177;28;20133;-80
2022/04/14 13:17:23;;;;;;;1.50;0.65;;;22.50;99.90;;;;;;20801071;28;20073;-82
2022/04/14 13:27:25;;;;;;;2.72;1.02;;;22.30;99.80;;;;;;20783504;28;20038;-82
2022/04/14 13:37:26;;;;;;;2.53;0.70;;;22.20;99.50;;;;;;20787334;28;20045;-80
2022/04/14 13:47:27;;;;;;;2.25;0.82;;;23.00;99.90;;;;;;20761574;28;20040;-79
2022/04/14 13:57:28;;;;;;;5.47;1.15;;;23.00;98.50;;;;;;20760797;28;20049;-79
2022/04/14 14:07:30;;;;;;;2.25;1.10;;;22.70;99.10;;;;;;20762869;28;20079;-80
2022/04/14 14:17:31;;;;;;;2.00;0.98;;;22.20;98.20;;;;;;20777910;28;20039;-79
2022/04/14 14:27:34;;;;;;;2.42;0.88;;;21.80;99.80;;;;;;20772247;28;20044;-78
2022/04/14 14:37:35;;;;;;;3.95;1.10;;;20.90;99.90;;;;;;20779862;28;20263;-78
2022/04/14 14:47:38;;;;;;;3.80;1.73;;;20.40;99.90;;;;;;20778869;28;20034;-79
2022/04/14 15:07:58;;;;;;;3.53;1.27;;;20.10;99.90;;;;;;20804868;28;20346;-77
2022/04/14 15:18:04;;;;;;;3.50;1.63;;;20.20;99.90;;;;;;20784294;28;20061;-77
2022/04/14 15:28:08;;;;;;;2.03;1.08;;;20.00;99.90;;;;;;20798172;28;20033;-78
2022/04/14 15:38:10;;;;;;;2.80;1.15;;;19.40;99.90;;;;;;20771565;28;20044;-78
2022/04/14 15:48:11;;;;;;;5.13;0.82;;;19.10;99.90;;;;;;20752578;28;20049;-79
2022/04/14 15:58:13;;;;;;;2.20;0.60;;;18.70;99.90;;;;;;20763546;28;20059;-79
2022/04/14 16:08:14;;;;;;;3.92;1.45;;;18.30;99.90;;;;;;20737710;28;20058;-78
2022/04/14 16:18:16;;;;;;;4.65;1.45;;;18.20;99.90;;;;;;20741762;28;20046;-78
2022/04/14 16:28:18;;;;;;;2.22;1.08;;;17.80;99.90;;;;;;20686919;28;20041;-79
2022/04/14 16:38:19;;;;;;;1.92;0.80;;;17.60;99.90;;;;;;20699747;28;20053;-79
2022/04/14 16:48:20;;;;;;;1.45;0.70;;;17.80;99.90;;;;;;20718958;28;20451;-80
2022/04/14 16:58:21;;;;;;;1.90;0.82;;;17.60;99.90;;;;;;20716959;28;20042;-80
2022/04/14 17:08:24;;;;;;;1.05;0.45;;;17.40;99.90;;;;;;20701865;28;20276;-79
2022/04/14 17:18:25;;;;;;;4.22;1.42;;;17.30;99.90;;;;;;20761123;28;20060;-80
2022/04/14 17:28:27;;;;;;;3.95;1.67;;;17.10;99.90;;;;;;20755955;28;20607;-81
2022/04/14 17:38:28;;;;;;;5.05;1.95;;;17.30;99.90;;;;;;20797481;28;20037;-79
2022/04/14 17:48:29;;;;;;;3.05;1.38;;;17.30;99.90;;;;;;20816334;28;20392;-79
2022/04/14 17:58:32;;;;;;;3.88;1.38;;;17.00;99.90;;;;;;20827349;28;20558;-80
2022/04/14 18:08:33;;;;;;;2.67;1.23;;;16.80;99.90;;;;;;20827425;28;20088;-81
2022/04/14 18:18:34;;;;;;;2.50;1.15;;;16.50;99.90;;;;;;20808656;28;20073;-80
2022/04/14 18:28:35;;;;;;;2.58;1.35;;;16.00;99.90;;;;;;20818637;28;20048;-81
2022/04/14 18:38:36;;;;;;;2.53;0.85;;;15.70;99.90;;;;;;20851298;28;20504;-81
2022/04/14 18:48:38;;;;;;;3.63;0.75;;;15.30;99.90;;;;;;20830911;28;20125;-81
2022/04/14 18:58:40;;;;;;;1.63;0.70;;;15.20;99.90;;;;;;20805360;28;20068;-80
2022/04/14 19:08:42;;;;;;;3.00;0.70;;;15.00;99.90;;;;;;20818185;28;20080;-80
2022/04/14 19:18:43;;;;;;;4.13;0.65;;;14.80;99.90;;;;;;20817359;28;20120;-80
2022/04/14 19:28:44;;;;;;;3.97;0.95;;;14.50;99.90;;;;;;20808082;28;20133;-81
2022/04/14 19:38:46;;;;;;;2.05;0.70;;;14.20;99.90;;;;;;20812385;28;20042;-81
2022/04/14 19:48:47;;;;;;;1.85;1.25;;;13.80;99.90;;;;;;20798730;28;20041;-81
2022/04/14 19:58:48;;;;;;;1.88;0.60;;;13.50;99.90;;;;;;20794075;28;20060;-81
2022/04/14 20:08:53;;;;;;;2.55;0.90;;;13.30;99.90;;;;;;20734059;28;20070;-81
2022/04/14 20:18:54;;;;;;;2.10;0.98;;;13.10;99.90;;;;;;20719776;28;20106;-81
2022/04/14 20:28:55;;;;;;;4.85;1.23;;;13.10;99.90;;;;;;20758824;28;20277;-80
2022/04/14 20:38:56;;;;;;;3.45;1.90;;;13.00;99.90;;;;;;20743186;28;20034;-80
2022/04/14 20:48:57;;;;;;;4.50;1.83;;;12.90;99.90;;;;;;20741247;28;20121;-80
2022/04/14 20:59:02;;;;;;;3.85;1.80;;;12.80;99.90;;;;;;20756459;28;20050;-81
2022/04/14 21:09:03;;;;;;;5.80;2.00;;;12.60;99.90;;;;;;20788753;28;20144;-80
2022/04/14 21:19:04;;;;;;;5.18;2.03;;;12.30;99.90;;;;;;20805162;28;20038;-81
2022/04/14 21:29:06;;;;;;;7.07;2.70;;;12.10;99.90;;;;;;20822228;28;20520;-79
2022/04/14 21:39:07;;;;;;;5.22;2.28;;;12.00;99.90;;;;;;20818337;28;20056;-82
2022/04/14 21:49:08;;;;;;;7.40;2.25;;;11.90;99.90;;;;;;20782087;28;20497;-80
2022/04/14 21:59:10;;;;;;;8.45;2.50;;;11.80;99.90;;;;;;20812864;28;20029;-82
2022/04/14 22:09:11;;;;;;;7.80;2.97;;;11.60;99.90;;;;;;20818484;28;20132;-82
2022/04/14 22:19:13;;;;;;;5.97;2.80;;;11.50;99.90;;;;;;20823098;28;20056;-81
2022/04/14 22:29:15;;;;;;;7.05;3.25;;;11.20;99.90;;;;;;20841306;28;20083;-81
2022/04/14 22:39:18;;;;;;;6.35;2.70;;;11.20;99.90;;;;;;20822052;28;20121;-80
2022/04/14 22:49:19;;;;;;;8.85;3.30;;;11.10;99.90;;;;;;20824557;28;20053;-82
2022/04/14 22:59:21;;;;;;;10.80;3.00;;;11.10;99.90;;;;;;20811415;28;20045;-81
2022/04/14 23:09:22;;;;;;;7.70;2.90;;;11.00;99.90;;;;;;20782654;28;20116;-81
2022/04/14 23:19:23;;;;;;;7.05;2.75;;;10.90;99.90;;;;;;20825372;28;20068;-81
2022/04/14 23:29:25;;;;;;;5.80;3.05;;;10.90;99.90;;;;;;20811536;28;20460;-82
2022/04/14 23:39:36;;;;;;;7.20;3.45;;;10.80;99.90;;;;;;20820709;28;20123;-81
2022/04/14 23:49:38;;;;;;;8.57;2.60;;;10.70;99.90;;;;;;20820149;28;20041;-81
2022/04/14 23:59:39;;;;;;;6.53;2.60;;;10.60;99.90;;;;;;20812692;28;20213;-80
